sensor_id;sensor_type;location;lat;lon;timestamp;pressure;altitude;pressure_sealevel;temperature;humidity
30463;BME280;17256;43.618;25.336;2022-09-03T00:00:54;100613.13;;;18.33;100.00
30463;BME280;17256;43.618;25.336;2022-09-03T00:03:38;100393.59;;;16.98;100.00
30463;BME280;17256;43.618;25.336;2022-09-03T00:06:20;100284.78;;;16.39;100.00
30463;BME280;17256;43.618;25.336;2022-09-03T00:09:28;100619.63;;;18.39;100.00
30463;BME280;17256;43.618;25.336;2022-09-03T00:12:13;100456.50;;;17.20;100.00
30463;BME280;17256;43.618;25.336;2022-09-03T00:14:54;100388.22;;;16.79;100.00
30463;BME280;17256;43.618;25.336;2022-09-03T00:17:58;100471.16;;;17.33;100.00
30463;BME280;17256;43.618;25.336;2022-09-03T00:20:40;100122.63;;;15.09;100.00
30463;BME280;17256;43.618;25.336;2022-09-03T00:23:23;100363.03;;;16.57;100.00
30463;BME280;17256;43.618;25.336;2022-09-03T00:28:48;100294.13;;;15.97;100.00
30463;BME280;17256;43.618;25.336;2022-09-03T00:31:31;100466.66;;;17.03;100.00
30463;BME280;17256;43.618;25.336;2022-09-03T00:34:11;100430.16;;;16.83;100.00
30463;BME280;17256;43.618;25.336;2022-09-03T00:36:42;100242.22;;;15.58;100.00
30463;BME280;17256;43.618;25.336;2022-09-03T00:39:15;100435.25;;;16.74;100.00
30463;BME280;17256;43.618;25.336;2022-09-03T00:42:00;100641.94;;;17.99;100.00
30463;BME280;17256;43.618;25.336;2022-09-03T00:51:02;100641.25;;;17.80;100.00
30463;BME280;17256;43.618;25.336;2022-09-03T00:57:13;100388.28;;;16.21;100.00
30463;BME280;17256;43.618;25.336;2022-09-03T01:02:40;100490.38;;;16.71;100.00
30463;BME280;17256;43.618;25.336;2022-09-03T01:05:42;100527.84;;;16.97;100.00
30463;BME280;17256;43.618;25.336;2022-09-03T01:11:49;100642.09;;;17.80;100.00
30463;BME280;17256;43.618;25.336;2022-09-03T01:20:24;100480.84;;;16.67;100.00
30463;BME280;17256;43.618;25.336;2022-09-03T01:23:21;100652.03;;;17.65;100.00
30463;BME280;17256;43.618;25.336;2022-09-03T01:26:09;100649.00;;;17.66;100.00
30463;BME280;17256;43.618;25.336;2022-09-03T01:32:39;100541.59;;;16.80;100.00
30463;BME280;17256;43.618;25.336;2022-09-03T01:35:30;100669.19;;;17.50;100.00
30463;BME280;17256;43.618;25.336;2022-09-03T01:41:02;100406.78;;;15.74;100.00
30463;BME280;17256;43.618;25.336;2022-09-03T01:46:36;100461.75;;;16.00;100.00
30463;BME280;17256;43.618;25.336;2022-09-03T01:55:42;100594.53;;;16.78;100.00
30463;BME280;17256;43.618;25.336;2022-09-03T01:58:20;100672.09;;;17.43;100.00
30463;BME280;17256;43.618;25.336;2022-09-03T02:00:56;100540.63;;;16.63;100.00
30463;BME280;17256;43.618;25.336;2022-09-03T02:03:32;100449.22;;;16.09;100.00
30463;BME280;17256;43.618;25.336;2022-09-03T02:06:02;100481.38;;;15.98;100.00
30463;BME280;17256;43.618;25.336;2022-09-03T02:08:31;100326.41;;;15.27;100.00
30463;BME280;17256;43.618;25.336;2022-09-03T02:11:06;100464.50;;;16.00;100.00
30463;BME280;17256;43.618;25.336;2022-09-03T02:13:52;100544.44;;;16.50;100.00
30463;BME280;17256;43.618;25.336;2022-09-03T02:16:29;100544.09;;;16.46;100.00
30463;BME280;17256;43.618;25.336;2022-09-03T02:19:05;100467.28;;;16.00;100.00
30463;BME280;17256;43.618;25.336;2022-09-03T02:21:40;100455.66;;;15.80;100.00
30463;BME280;17256;43.618;25.336;2022-09-03T02:24:13;100304.59;;;14.77;100.00
30463;BME280;17256;43.618;25.336;2022-09-03T02:26:41;100519.94;;;16.12;100.00
30463;BME280;17256;43.618;25.336;2022-09-03T02:29:08;100310.53;;;14.92;100.00
30463;BME280;17256;43.618;25.336;2022-09-03T02:31:38;100568.19;;;16.46;100.00
30463;BME280;17256;43.618;25.336;2022-09-03T02:34:06;100315.66;;;14.77;100.00
30463;BME280;17256;43.618;25.336;2022-09-03T02:36:42;100407.75;;;15.37;100.00
30463;BME280;17256;43.618;25.336;2022-09-03T02:39:16;100668.00;;;16.87;100.00
30463;BME280;17256;43.618;25.336;2022-09-03T02:41:54;100693.94;;;17.05;100.00
30463;BME280;17256;43.618;25.336;2022-09-03T02:44:36;100630.44;;;16.61;100.00
30463;BME280;17256;43.618;25.336;2022-09-03T02:47:13;100434.00;;;15.47;100.00
30463;BME280;17256;43.618;25.336;2022-09-03T02:49:42;100460.03;;;15.57;100.00
30463;BME280;17256;43.618;25.336;2022-09-03T02:52:09;100615.56;;;16.56;100.00
30463;BME280;17256;43.618;25.336;2022-09-03T02:54:38;100493.81;;;15.66;100.00
30463;BME280;17256;43.618;25.336;2022-09-03T02:57:16;100388.16;;;15.09;100.00
30463;BME280;17256;43.618;25.336;2022-09-03T02:59:43;100633.13;;;16.68;100.00
30463;BME280;17256;43.618;25.336;2022-09-03T03:02:12;100687.16;;;17.01;100.00
30463;BME280;17256;43.618;25.336;2022-09-03T03:04:42;100500.25;;;15.90;100.00
30463;BME280;17256;43.618;25.336;2022-09-03T03:07:10;100423.88;;;15.41;100.00
30463;BME280;17256;43.618;25.336;2022-09-03T03:09:37;100552.25;;;16.18;100.00
30463;BME280;17256;43.618;25.336;2022-09-03T03:12:11;100326.22;;;14.80;100.00
30463;BME280;17256;43.618;25.336;2022-09-03T03:14:40;100347.41;;;14.86;100.00
30463;BME280;17256;43.618;25.336;2022-09-03T03:17:11;100329.47;;;14.77;100.00
30463;BME280;17256;43.618;25.336;2022-09-03T03:19:40;100319.28;;;14.59;100.00
30463;BME280;17256;43.618;25.336;2022-09-03T03:22:09;100453.19;;;15.60;100.00
30463;BME280;17256;43.618;25.336;2022-09-03T03:24:44;100456.16;;;15.47;100.00
30463;BME280;17256;43.618;25.336;2022-09-03T03:27:13;100677.28;;;16.93;100.00
30463;BME280;17256;43.618;25.336;2022-09-03T03:29:45;100301.72;;;14.54;100.00
30463;BME280;17256;43.618;25.336;2022-09-03T03:32:13;100550.25;;;16.07;100.00
30463;BME280;17256;43.618;25.336;2022-09-03T03:34:52;100476.88;;;15.56;100.00
30463;BME280;17256;43.618;25.336;2022-09-03T03:37:22;100563.81;;;16.15;100.00
30463;BME280;17256;43.618;25.336;2022-09-03T03:39:49;100429.44;;;15.41;100.00
30463;BME280;17256;43.618;25.336;2022-09-03T03:42:19;100430.81;;;15.31;100.00
30463;BME280;17256;43.618;25.336;2022-09-03T03:45:11;100356.09;;;14.90;100.00
30463;BME280;17256;43.618;25.336;2022-09-03T03:47:42;100441.56;;;15.39;100.00
30463;BME280;17256;43.618;25.336;2022-09-03T03:50:11;100452.09;;;15.31;100.00
30463;BME280;17256;43.618;25.336;2022-09-03T03:52:50;100664.47;;;16.69;100.00
30463;BME280;17256;43.618;25.336;2022-09-03T03:55:17;100528.25;;;15.70;100.00
30463;BME280;17256;43.618;25.336;2022-09-03T03:57:44;100450.31;;;15.36;100.00
30463;BME280;17256;43.618;25.336;2022-09-03T04:00:15;100564.47;;;15.98;100.00
30463;BME280;17256;43.618;25.336;2022-09-03T04:02:47;100495.97;;;15.46;100.00
30463;BME280;17256;43.618;25.336;2022-09-03T04:05:20;100627.19;;;16.23;100.00
30463;BME280;17256;43.618;25.336;2022-09-03T04:07:53;100707.25;;;16.73;100.00
30463;BME280;17256;43.618;25.336;2022-09-03T04:10:24;100520.50;;;15.42;100.00
30463;BME280;17256;43.618;25.336;2022-09-03T04:12:57;100343.16;;;14.54;100.00
30463;BME280;17256;43.618;25.336;2022-09-03T04:15:26;100589.22;;;16.12;100.00
30463;BME280;17256;43.618;25.336;2022-09-03T04:17:55;100503.03;;;15.60;100.00
30463;BME280;17256;43.618;25.336;2022-09-03T04:20:24;100490.47;;;15.57;100.00
30463;BME280;17256;43.618;25.336;2022-09-03T04:22:52;100627.91;;;16.30;100.00
30463;BME280;17256;43.618;25.336;2022-09-03T04:25:19;100325.66;;;14.41;100.00
30463;BME280;17256;43.618;25.336;2022-09-03T04:27:45;100333.09;;;14.41;100.00
30463;BME280;17256;43.618;25.336;2022-09-03T04:30:13;100720.09;;;16.85;100.00
30463;BME280;17256;43.618;25.336;2022-09-03T04:32:42;100727.41;;;16.80;100.00
30463;BME280;17256;43.618;25.336;2022-09-03T04:35:24;100658.53;;;16.35;100.00
30463;BME280;17256;43.618;25.336;2022-09-03T04:37:57;100347.44;;;14.31;100.00
30463;BME280;17256;43.618;25.336;2022-09-03T04:40:25;100370.56;;;14.55;100.00
30463;BME280;17256;43.618;25.336;2022-09-03T04:42:56;100600.03;;;15.83;100.00
30463;BME280;17256;43.618;25.336;2022-09-03T04:45:28;100534.72;;;15.27;100.00
30463;BME280;17256;43.618;25.336;2022-09-03T04:48:02;100557.72;;;15.28;100.00
30463;BME280;17256;43.618;25.336;2022-09-03T04:51:14;100405.16;;;14.39;100.00
30463;BME280;17256;43.618;25.336;2022-09-03T04:54:00;100642.59;;;15.89;100.00
30463;BME280;17256;43.618;25.336;2022-09-03T04:56:32;100421.53;;;14.59;100.00
30463;BME280;17256;43.618;25.336;2022-09-03T04:59:04;100527.59;;;15.20;100.00
30463;BME280;17256;43.618;25.336;2022-09-03T05:01:34;100550.09;;;15.42;100.00
30463;BME280;17256;43.618;25.336;2022-09-03T05:04:08;100371.44;;;14.31;100.00
30463;BME280;17256;43.618;25.336;2022-09-03T05:06:37;100448.00;;;14.85;100.00
30463;BME280;17256;43.618;25.336;2022-09-03T05:09:09;100587.56;;;15.62;100.00
30463;BME280;17256;43.618;25.336;2022-09-03T05:11:39;100607.66;;;15.88;100.00
30463;BME280;17256;43.618;25.336;2022-09-03T05:14:09;100540.72;;;15.24;100.00
30463;BME280;17256;43.618;25.336;2022-09-03T05:16:46;100481.66;;;15.00;100.00
30463;BME280;17256;43.618;25.336;2022-09-03T05:19:42;100804.47;;;16.59;100.00
30463;BME280;17256;43.618;25.336;2022-09-03T05:22:10;100473.69;;;14.74;100.00
30463;BME280;17256;43.618;25.336;2022-09-03T05:24:57;100425.53;;;14.45;100.00
30463;BME280;17256;43.618;25.336;2022-09-03T05:27:26;100638.19;;;15.81;100.00
30463;BME280;17256;43.618;25.336;2022-09-03T05:29:53;100661.06;;;16.07;100.00
30463;BME280;17256;43.618;25.336;2022-09-03T05:32:24;100786.66;;;16.85;100.00
30463;BME280;17256;43.618;25.336;2022-09-03T05:34:57;100524.03;;;15.31;100.00
30463;BME280;17256;43.618;25.336;2022-09-03T05:37:27;100384.75;;;14.59;100.00
30463;BME280;17256;43.618;25.336;2022-09-03T05:39:55;100552.22;;;15.58;100.00
30463;BME280;17256;43.618;25.336;2022-09-03T05:42:25;100433.13;;;14.86;100.00
30463;BME280;17256;43.618;25.336;2022-09-03T05:44:52;100486.28;;;14.88;100.00
30463;BME280;17256;43.618;25.336;2022-09-03T05:47:22;100665.88;;;15.99;100.00
30463;BME280;17256;43.618;25.336;2022-09-03T05:49:56;100565.31;;;15.32;100.00
30463;BME280;17256;43.618;25.336;2022-09-03T05:52:27;100573.09;;;15.24;100.00
30463;BME280;17256;43.618;25.336;2022-09-03T05:55:25;100719.59;;;16.28;100.00
30463;BME280;17256;43.618;25.336;2022-09-03T05:57:54;100408.66;;;14.28;100.00
30463;BME280;17256;43.618;25.336;2022-09-03T06:00:23;100452.25;;;14.69;100.00
30463;BME280;17256;43.618;25.336;2022-09-03T06:02:57;100494.88;;;14.98;100.00
30463;BME280;17256;43.618;25.336;2022-09-03T06:05:24;100802.44;;;16.85;100.00
30463;BME280;17256;43.618;25.336;2022-09-03T06:07:52;100615.69;;;15.59;100.00
30463;BME280;17256;43.618;25.336;2022-09-03T06:10:24;100564.22;;;15.33;100.00
30463;BME280;17256;43.618;25.336;2022-09-03T06:12:52;100452.78;;;14.60;100.00
30463;BME280;17256;43.618;25.336;2022-09-03T06:15:18;100437.00;;;14.42;100.00
30463;BME280;17256;43.618;25.336;2022-09-03T06:17:49;100837.44;;;16.86;100.00
30463;BME280;17256;43.618;25.336;2022-09-03T06:20:20;100539.28;;;15.03;100.00
30463;BME280;17256;43.618;25.336;2022-09-03T06:23:18;100712.56;;;16.14;100.00
30463;BME280;17256;43.618;25.336;2022-09-03T06:25:45;100704.19;;;16.03;100.00
30463;BME280;17256;43.618;25.336;2022-09-03T06:28:14;100685.13;;;15.94;100.00
30463;BME280;17256;43.618;25.336;2022-09-03T06:31:03;100458.84;;;14.50;100.00
30463;BME280;17256;43.618;25.336;2022-09-03T06:33:36;100494.94;;;14.73;100.00
30463;BME280;17256;43.618;25.336;2022-09-03T06:36:07;100613.75;;;15.60;100.00
30463;BME280;17256;43.618;25.336;2022-09-03T06:38:37;100717.63;;;16.17;100.00
30463;BME280;17256;43.618;25.336;2022-09-03T06:41:18;100569.53;;;15.35;100.00
30463;BME280;17256;43.618;25.336;2022-09-03T06:44:03;100858.56;;;16.87;100.00
30463;BME280;17256;43.618;25.336;2022-09-03T06:46:33;100766.00;;;16.33;100.00
30463;BME280;17256;43.618;25.336;2022-09-03T06:49:09;100402.13;;;14.23;100.00
30463;BME280;17256;43.618;25.336;2022-09-03T06:51:37;100504.31;;;14.72;100.00
30463;BME280;17256;43.618;25.336;2022-09-03T06:54:06;100594.84;;;15.38;100.00
30463;BME280;17256;43.618;25.336;2022-09-03T06:56:36;100539.59;;;15.14;100.00
30463;BME280;17256;43.618;25.336;2022-09-03T06:59:10;100876.81;;;17.06;100.00
30463;BME280;17256;43.618;25.336;2022-09-03T07:01:40;100437.50;;;14.57;100.00
30463;BME280;17256;43.618;25.336;2022-09-03T07:04:09;100489.19;;;14.93;100.00
30463;BME280;17256;43.618;25.336;2022-09-03T07:06:40;100678.41;;;16.02;100.00
30463;BME280;17256;43.618;25.336;2022-09-03T07:09:21;100500.03;;;14.95;100.00
30463;BME280;17256;43.618;25.336;2022-09-03T07:11:49;100479.06;;;14.87;100.00
30463;BME280;17256;43.618;25.336;2022-09-03T07:14:17;100600.09;;;15.65;100.00
30463;BME280;17256;43.618;25.336;2022-09-03T07:16:48;100828.91;;;16.99;100.00
30463;BME280;17256;43.618;25.336;2022-09-03T07:19:15;100560.47;;;15.28;100.00
30463;BME280;17256;43.618;25.336;2022-09-03T07:21:46;100500.72;;;14.90;100.00
30463;BME280;17256;43.618;25.336;2022-09-03T07:24:27;100862.91;;;17.25;100.00
30463;BME280;17256;43.618;25.336;2022-09-03T07:27:10;100636.34;;;15.75;100.00
30463;BME280;17256;43.618;25.336;2022-09-03T07:29:52;100523.34;;;14.81;100.00
30463;BME280;17256;43.618;25.336;2022-09-03T07:32:21;100438.41;;;14.51;100.00
30463;BME280;17256;43.618;25.336;2022-09-03T07:34:49;100545.41;;;15.42;100.00
30463;BME280;17256;43.618;25.336;2022-09-03T07:37:20;100696.81;;;16.26;100.00
30463;BME280;17256;43.618;25.336;2022-09-03T07:39:49;100564.38;;;15.75;100.00
30463;BME280;17256;43.618;25.336;2022-09-03T07:42:15;100731.06;;;16.92;100.00
30463;BME280;17256;43.618;25.336;2022-09-03T07:44:42;100824.91;;;17.48;100.00
30463;BME280;17256;43.618;25.336;2022-09-03T07:47:09;100782.66;;;17.35;100.00
30463;BME280;17256;43.618;25.336;2022-09-03T07:49:37;100703.72;;;16.66;100.00
30463;BME280;17256;43.618;25.336;2022-09-03T07:52:03;100748.94;;;17.08;100.00
30463;BME280;17256;43.618;25.336;2022-09-03T07:54:30;100534.38;;;15.72;100.00
30463;BME280;17256;43.618;25.336;2022-09-03T07:57:00;100873.91;;;17.96;100.00
30463;BME280;17256;43.618;25.336;2022-09-03T07:59:30;100711.31;;;17.00;100.00
30463;BME280;17256;43.618;25.336;2022-09-03T08:01:56;100528.09;;;15.95;100.00
30463;BME280;17256;43.618;25.336;2022-09-03T08:04:23;100705.38;;;17.08;100.00
30463;BME280;17256;43.618;25.336;2022-09-03T08:06:51;100779.53;;;17.66;100.00
30463;BME280;17256;43.618;25.336;2022-09-03T08:09:23;100642.03;;;16.82;100.00
30463;BME280;17256;43.618;25.336;2022-09-03T08:11:50;100682.84;;;16.93;100.00
30463;BME280;17256;43.618;25.336;2022-09-03T08:14:24;100730.63;;;17.18;100.00
30463;BME280;17256;43.618;25.336;2022-09-03T08:16:57;100783.28;;;17.83;100.00
30463;BME280;17256;43.618;25.336;2022-09-03T08:19:26;100661.84;;;16.85;100.00
30463;BME280;17256;43.618;25.336;2022-09-03T08:21:53;100553.41;;;16.10;100.00
30463;BME280;17256;43.618;25.336;2022-09-03T08:24:24;100657.69;;;16.65;100.00
30463;BME280;17256;43.618;25.336;2022-09-03T08:26:55;100698.97;;;16.84;100.00
30463;BME280;17256;43.618;25.336;2022-09-03T08:29:27;100631.47;;;16.60;100.00
30463;BME280;17256;43.618;25.336;2022-09-03T08:32:04;100820.25;;;17.84;100.00
30463;BME280;17256;43.618;25.336;2022-09-03T08:34:32;100782.44;;;17.36;100.00
30463;BME280;17256;43.618;25.336;2022-09-03T08:36:59;100823.47;;;17.58;100.00
30463;BME280;17256;43.618;25.336;2022-09-03T08:39:27;100657.25;;;16.49;100.00
30463;BME280;17256;43.618;25.336;2022-09-03T08:45:09;100883.19;;;17.78;100.00
30463;BME280;17256;43.618;25.336;2022-09-03T08:50:32;100814.19;;;17.52;100.00
30463;BME280;17256;43.618;25.336;2022-09-03T08:53:40;100889.72;;;17.96;100.00
30463;BME280;17256;43.618;25.336;2022-09-03T08:56:34;100898.06;;;17.96;100.00
30463;BME280;17256;43.618;25.336;2022-09-03T08:59:06;100840.53;;;17.61;100.00
30463;BME280;17256;43.618;25.336;2022-09-03T09:01:59;100890.81;;;17.95;100.00
30463;BME280;17256;43.618;25.336;2022-09-03T09:05:16;100891.31;;;18.15;100.00
30463;BME280;17256;43.618;25.336;2022-09-03T09:11:04;100552.50;;;15.86;100.00
30463;BME280;17256;43.618;25.336;2022-09-03T09:14:02;100900.72;;;17.91;100.00
30463;BME280;17256;43.618;25.336;2022-09-03T09:17:07;100901.34;;;17.93;100.00
30463;BME280;17256;43.618;25.336;2022-09-03T09:22:56;100907.25;;;17.96;100.00
30463;BME280;17256;43.618;25.336;2022-09-03T09:25:30;100794.59;;;17.23;100.00
30463;BME280;17256;43.618;25.336;2022-09-03T09:28:24;100775.03;;;17.18;100.00
30463;BME280;17256;43.618;25.336;2022-09-03T09:30:54;100578.88;;;15.89;100.00
30463;BME280;17256;43.618;25.336;2022-09-03T09:33:24;100937.22;;;17.94;100.00
30463;BME280;17256;43.618;25.336;2022-09-03T09:35:52;100497.16;;;15.38;100.00
30463;BME280;17256;43.618;25.336;2022-09-03T09:38:30;100815.34;;;17.33;100.00
30463;BME280;17256;43.618;25.336;2022-09-03T09:41:10;100691.50;;;16.55;100.00
30463;BME280;17256;43.618;25.336;2022-09-03T09:44:02;100921.28;;;18.13;100.00
30463;BME280;17256;43.618;25.336;2022-09-03T09:46:35;100846.53;;;17.58;100.00
30463;BME280;17256;43.618;25.336;2022-09-03T09:49:24;100617.69;;;16.30;100.00
30463;BME280;17256;43.618;25.336;2022-09-03T09:52:04;100901.56;;;17.91;100.00
30463;BME280;17256;43.618;25.336;2022-09-03T09:54:34;100674.97;;;16.48;100.00
30463;BME280;17256;43.618;25.336;2022-09-03T09:57:22;100922.97;;;18.14;100.00
30463;BME280;17256;43.618;25.336;2022-09-03T09:59:49;100885.72;;;17.68;100.00
30463;BME280;17256;43.618;25.336;2022-09-03T10:02:23;100966.94;;;17.94;100.00
30463;BME280;17256;43.618;25.336;2022-09-03T10:05:29;100938.53;;;17.92;100.00
30463;BME280;17256;43.618;25.336;2022-09-03T10:08:04;100947.00;;;17.97;100.00
30463;BME280;17256;43.618;25.336;2022-09-03T10:10:40;100658.75;;;16.22;100.00
30463;BME280;17256;43.618;25.336;2022-09-03T10:13:17;100980.72;;;18.00;100.00
30463;BME280;17256;43.618;25.336;2022-09-03T10:18:46;100954.13;;;17.93;100.00
30463;BME280;17256;43.618;25.336;2022-09-03T10:21:30;100848.53;;;17.16;100.00
30463;BME280;17256;43.618;25.336;2022-09-03T10:26:40;100789.94;;;16.94;100.00
30463;BME280;17256;43.618;25.336;2022-09-03T10:29:14;100739.09;;;16.70;100.00
30463;BME280;17256;43.618;25.336;2022-09-03T10:37:36;100971.88;;;18.03;100.00
30463;BME280;17256;43.618;25.336;2022-09-03T10:46:16;100802.03;;;16.70;100.00
30463;BME280;17256;43.618;25.336;2022-09-03T10:58:11;100995.81;;;17.63;100.00
30463;BME280;17256;43.618;25.336;2022-09-03T11:00:51;100877.66;;;16.77;100.00
30463;BME280;17256;43.618;25.336;2022-09-03T11:03:44;100986.81;;;17.49;100.00
30463;BME280;17256;43.618;25.336;2022-09-03T11:06:45;100620.13;;;15.42;100.00
30463;BME280;17256;43.618;25.336;2022-09-03T11:09:20;100993.88;;;17.63;100.00
30463;BME280;17256;43.618;25.336;2022-09-03T11:11:55;100846.69;;;16.80;100.00
30463;BME280;17256;43.618;25.336;2022-09-03T11:14:44;100631.59;;;15.46;100.00
30463;BME280;17256;43.618;25.336;2022-09-03T11:17:22;100835.44;;;16.75;100.00
30463;BME280;17256;43.618;25.336;2022-09-03T11:22:42;100873.38;;;17.11;100.00
30463;BME280;17256;43.618;25.336;2022-09-03T11:25:14;100915.16;;;17.28;100.00
30463;BME280;17256;43.618;25.336;2022-09-03T11:27:55;100703.44;;;15.95;100.00
30463;BME280;17256;43.618;25.336;2022-09-03T11:33:32;100843.97;;;16.91;100.00
30463;BME280;17256;43.618;25.336;2022-09-03T11:36:06;100882.22;;;17.31;100.00
30463;BME280;17256;43.618;25.336;2022-09-03T11:38:46;101000.81;;;18.14;100.00
30463;BME280;17256;43.618;25.336;2022-09-03T11:41:34;100658.06;;;16.08;100.00
30463;BME280;17256;43.618;25.336;2022-09-03T11:44:19;100689.09;;;15.98;100.00
30463;BME280;17256;43.618;25.336;2022-09-03T11:46:57;100837.44;;;16.86;100.00
30463;BME280;17256;43.618;25.336;2022-09-03T11:49:31;100891.53;;;17.07;100.00
30463;BME280;17256;43.618;25.336;2022-09-03T11:52:10;100881.97;;;17.33;100.00
30463;BME280;17256;43.618;25.336;2022-09-03T11:54:45;100819.50;;;17.00;100.00
30463;BME280;17256;43.618;25.336;2022-09-03T11:57:49;101007.69;;;18.11;100.00
30463;BME280;17256;43.618;25.336;2022-09-03T12:00:17;100911.00;;;17.48;100.00
30463;BME280;17256;43.618;25.336;2022-09-03T12:03:01;100657.41;;;15.94;100.00
30463;BME280;17256;43.618;25.336;2022-09-03T12:11:10;101000.81;;;18.61;100.00
30463;BME280;17256;43.618;25.336;2022-09-03T12:19:57;101002.16;;;18.47;100.00
30463;BME280;17256;43.618;25.336;2022-09-03T12:22:29;100734.94;;;16.91;100.00
30463;BME280;17256;43.618;25.336;2022-09-03T12:25:12;100689.94;;;16.59;100.00
30463;BME280;17256;43.618;25.336;2022-09-03T12:27:41;100615.06;;;16.06;100.00
30463;BME280;17256;43.618;25.336;2022-09-03T12:30:16;100821.50;;;17.23;100.00
30463;BME280;17256;43.618;25.336;2022-09-03T12:33:06;100854.50;;;17.43;100.00
30463;BME280;17256;43.618;25.336;2022-09-03T12:35:34;100901.94;;;17.95;100.00
30463;BME280;17256;43.618;25.336;2022-09-03T12:38:22;100781.06;;;17.27;100.00
30463;BME280;17256;43.618;25.336;2022-09-03T12:40:50;100674.38;;;16.58;100.00
30463;BME280;17256;43.618;25.336;2022-09-03T12:43:18;101002.25;;;18.52;100.00
30463;BME280;17256;43.618;25.336;2022-09-03T12:45:48;100995.00;;;18.51;100.00
30463;BME280;17256;43.618;25.336;2022-09-03T12:48:22;100668.94;;;16.40;100.00
30463;BME280;17256;43.618;25.336;2022-09-03T12:51:03;100994.63;;;18.59;100.00
30463;BME280;17256;43.618;25.336;2022-09-03T12:53:35;100719.69;;;16.82;100.00
30463;BME280;17256;43.618;25.336;2022-09-03T12:56:02;100638.94;;;16.60;100.00
30463;BME280;17256;43.618;25.336;2022-09-03T12:58:43;100803.53;;;17.26;100.00
30463;BME280;17256;43.618;25.336;2022-09-03T13:01:20;100764.13;;;17.05;100.00
30463;BME280;17256;43.618;25.336;2022-09-03T13:04:25;101010.97;;;18.55;100.00
30463;BME280;17256;43.618;25.336;2022-09-03T13:09:37;100682.03;;;16.63;100.00
30463;BME280;17256;43.618;25.336;2022-09-03T13:12:05;100738.69;;;16.97;100.00
30463;BME280;17256;43.618;25.336;2022-09-03T13:14:42;100670.66;;;16.52;100.00
30463;BME280;17256;43.618;25.336;2022-09-03T13:17:46;100890.34;;;17.98;100.00
30463;BME280;17256;43.618;25.336;2022-09-03T13:23:48;100895.03;;;17.97;100.00
30463;BME280;17256;43.618;25.336;2022-09-03T13:29:34;101009.28;;;18.42;100.00
30463;BME280;17256;43.618;25.336;2022-09-03T13:42:24;100656.81;;;16.22;100.00
30463;BME280;17256;43.618;25.336;2022-09-03T13:47:50;100670.31;;;16.30;100.00
30463;BME280;17256;43.618;25.336;2022-09-03T13:51:12;100787.13;;;16.82;100.00
30463;BME280;17256;43.618;25.336;2022-09-03T13:56:35;100623.47;;;15.99;100.00
30463;BME280;17256;43.618;25.336;2022-09-03T14:04:50;100994.63;;;18.12;100.00
30463;BME280;17256;43.618;25.336;2022-09-03T14:22:05;101038.09;;;18.06;100.00
30463;BME280;17256;43.618;25.336;2022-09-03T14:24:56;100658.19;;;15.83;100.00
30463;BME280;17256;43.618;25.336;2022-09-03T14:27:33;100700.41;;;16.15;100.00
30463;BME280;17256;43.618;25.336;2022-09-03T14:33:35;100956.88;;;17.51;100.00
30463;BME280;17256;43.618;25.336;2022-09-03T14:41:55;100886.31;;;17.29;100.00
30463;BME280;17256;43.618;25.336;2022-09-03T14:47:43;100857.88;;;17.03;100.00
30463;BME280;17256;43.618;25.336;2022-09-03T14:50:40;101018.41;;;18.08;100.00
30463;BME280;17256;43.618;25.336;2022-09-03T14:56:32;100917.66;;;17.17;100.00
30463;BME280;17256;43.618;25.336;2022-09-03T15:11:32;100913.47;;;17.27;100.00
30463;BME280;17256;43.618;25.336;2022-09-03T15:14:11;101032.00;;;18.16;100.00
30463;BME280;17256;43.618;25.336;2022-09-03T15:22:41;100822.66;;;16.55;100.00
30463;BME280;17256;43.618;25.336;2022-09-03T15:30:59;100990.69;;;17.48;100.00
30463;BME280;17256;43.618;25.336;2022-09-03T15:33:51;101032.94;;;17.68;100.00
30463;BME280;17256;43.618;25.336;2022-09-03T15:36:38;100942.63;;;17.17;100.00
30463;BME280;17256;43.618;25.336;2022-09-03T15:39:18;100885.44;;;16.86;100.00
30463;BME280;17256;43.618;25.336;2022-09-03T15:42:06;100708.44;;;15.87;100.00
30463;BME280;17256;43.618;25.336;2022-09-03T15:44:48;100698.59;;;15.91;100.00
30463;BME280;17256;43.618;25.336;2022-09-03T15:47:40;100830.38;;;16.72;100.00
30463;BME280;17256;43.618;25.336;2022-09-03T15:53:52;101058.16;;;18.08;100.00
30463;BME280;17256;43.618;25.336;2022-09-03T15:56:50;101058.41;;;18.07;100.00
30463;BME280;17256;43.618;25.336;2022-09-03T16:02:25;100863.47;;;16.85;100.00
30463;BME280;17256;43.618;25.336;2022-09-03T16:05:19;100824.44;;;16.68;100.00
30463;BME280;17256;43.618;25.336;2022-09-03T16:08:09;101069.22;;;18.15;100.00
30463;BME280;17256;43.618;25.336;2022-09-03T16:10:58;101056.03;;;18.10;100.00
30463;BME280;17256;43.618;25.336;2022-09-03T16:16:10;100949.03;;;17.48;100.00
30463;BME280;17256;43.618;25.336;2022-09-03T16:18:42;100950.38;;;17.57;100.00
30463;BME280;17256;43.618;25.336;2022-09-03T16:21:25;100907.28;;;17.13;100.00
30463;BME280;17256;43.618;25.336;2022-09-03T16:24:17;101061.53;;;17.99;100.00
30463;BME280;17256;43.618;25.336;2022-09-03T16:27:08;101053.94;;;18.06;100.00
30463;BME280;17256;43.618;25.336;2022-09-03T16:29:54;100844.72;;;16.69;100.00